Terminal Aerodrome Forecast
Issued by NWS Bismarck, ND

Home | Current Version | Previous Version | Text Only | Print | Product List | Glossary On
Versions: 1 2 3 4 5 6 7 8 9 10 11 12
000
FTUS43 KBIS 300528
TAFBIS
TAF
KBIS 300528Z 3006/0106 08005KT 6SM HZ SCT100
     FM301000 10007KT P6SM -SHRA BKN050 OVC100
     FM301500 14010KT P6SM VCSH SCT060 BKN100
     FM301800 17010KT P6SM -SHRA VCTS BKN060 OVC100CB
     FM302200 14008KT P6SM VCSH BKN050 BKN100=

USA.gov is the U.S. government's official web portal to all federal, state and local government web resources and services.